createdAt,value
2023-01-23T00:01:26.732Z,101246.34
2023-01-23T00:04:13.749Z,101210.38
2023-01-23T00:06:57.703Z,101244.44
2023-01-23T00:09:41.528Z,101257.72
2023-01-23T00:12:25.731Z,101243.34
2023-01-23T00:15:10.546Z,101252.97
2023-01-23T00:17:55.949Z,101262.47
2023-01-23T00:20:39.914Z,101252.06
2023-01-23T00:23:23.824Z,101271.00
2023-01-23T00:26:09.100Z,101269.31
2023-01-23T00:28:53.939Z,101274.94
2023-01-23T00:31:39.798Z,101270.88
2023-01-23T00:34:26.669Z,101277.69
2023-01-23T00:37:10.529Z,101268.00
2023-01-23T00:39:54.327Z,101276.31
2023-01-23T00:42:38.193Z,101286.97
2023-01-23T00:45:21.956Z,101293.78
2023-01-23T00:48:06.002Z,101278.66
2023-01-23T00:50:51.599Z,101277.72
2023-01-23T00:53:35.378Z,101304.91
2023-01-23T00:56:19.339Z,101304.66
2023-01-23T00:59:04.153Z,101316.91
2023-01-23T01:01:48.240Z,101319.53
2023-01-23T01:04:32.740Z,101321.91
2023-01-23T01:07:21.044Z,101319.13
2023-01-23T01:10:05.295Z,101334.31
2023-01-23T01:12:49.319Z,101328.75
2023-01-23T01:15:33.301Z,101293.91
2023-01-23T01:18:17.955Z,101286.19
2023-01-23T01:21:02.232Z,101340.22
2023-01-23T01:23:48.086Z,101296.16
2023-01-23T01:26:32.506Z,101293.47
2023-01-23T01:29:16.547Z,101337.97
2023-01-23T01:32:00.815Z,101299.88
2023-01-23T01:34:45.166Z,101338.91
2023-01-23T01:37:29.228Z,101292.44
2023-01-23T01:40:18.267Z,101292.88
2023-01-23T01:43:05.431Z,101283.44
2023-01-23T01:46:15.159Z,101327.03
2023-01-23T01:49:07.633Z,101290.06
2023-01-23T01:51:56.038Z,101280.00
2023-01-23T01:54:44.345Z,101290.16
2023-01-23T01:57:33.257Z,101325.59
2023-01-23T02:00:20.692Z,101273.03
2023-01-23T02:03:05.508Z,101278.28
2023-01-23T02:05:52.131Z,101316.66
2023-01-23T02:08:43.196Z,101278.41
2023-01-23T02:11:27.176Z,101304.31
2023-01-23T02:14:14.601Z,101302.00
2023-01-23T02:17:01.347Z,101326.22
2023-01-23T02:19:52.991Z,101291.50
2023-01-23T02:22:45.780Z,101285.56
2023-01-23T02:25:40.457Z,101299.97
2023-01-23T02:28:38.458Z,101333.59
2023-01-23T02:31:23.972Z,101335.19
2023-01-23T02:34:07.932Z,101337.72
2023-01-23T02:36:51.877Z,101340.75
2023-01-23T02:39:36.051Z,101345.53
2023-01-23T02:42:20.687Z,101337.72
2023-01-23T02:45:10.808Z,101352.53
2023-01-23T02:47:54.658Z,101351.69
2023-01-23T02:50:38.621Z,101364.97
2023-01-23T02:53:22.463Z,101345.69
2023-01-23T02:56:09.239Z,101362.22
2023-01-23T02:59:10.511Z,101316.91
2023-01-23T03:01:55.798Z,101370.78
2023-01-23T03:04:39.604Z,101342.09
2023-01-23T03:07:23.378Z,101359.53
2023-01-23T03:10:08.804Z,101358.09
2023-01-23T03:12:52.594Z,101364.56
2023-01-23T03:15:38.523Z,101356.53
2023-01-23T03:18:23.800Z,101369.06
2023-01-23T03:21:09.380Z,101370.59
2023-01-23T03:23:53.281Z,101366.16
2023-01-23T03:26:40.093Z,101345.41
2023-01-23T03:29:44.449Z,101358.66
2023-01-23T03:32:30.975Z,101370.59
2023-01-23T03:35:18.159Z,101363.44
2023-01-23T03:38:02.160Z,101368.41
2023-01-23T03:41:03.714Z,101371.78
2023-01-23T03:43:50.924Z,101368.88
2023-01-23T03:46:34.814Z,101366.75
2023-01-23T03:49:19.783Z,101387.53
2023-01-23T03:52:09.590Z,101363.63
2023-01-23T03:54:53.704Z,101379.78
2023-01-23T03:57:37.772Z,101380.34
2023-01-23T04:00:33.566Z,101375.00
2023-01-23T04:03:21.644Z,101385.19
2023-01-23T04:06:05.934Z,101384.13
2023-01-23T04:08:51.352Z,101353.72
2023-01-23T04:11:35.488Z,101385.69
2023-01-23T04:14:19.591Z,101388.88
2023-01-23T04:17:03.573Z,101385.72
2023-01-23T04:19:47.745Z,101382.50
2023-01-23T04:22:31.885Z,101412.22
2023-01-23T04:25:17.276Z,101417.63
2023-01-23T04:28:01.554Z,101376.84
2023-01-23T04:30:45.881Z,101417.44
2023-01-23T04:33:36.804Z,101404.63
2023-01-23T04:36:20.638Z,101430.63
2023-01-23T04:39:05.118Z,101425.00
2023-01-23T04:41:50.949Z,101424.84
2023-01-23T04:44:53.010Z,101420.25
2023-01-23T04:47:39.825Z,101418.41
2023-01-23T04:50:27.189Z,101419.66
2023-01-23T04:53:11.439Z,101417.53
2023-01-23T04:55:55.724Z,101431.41
2023-01-23T04:58:41.103Z,101414.41
2023-01-23T05:01:26.912Z,101427.53
2023-01-23T05:04:15.841Z,101433.28
2023-01-23T05:07:01.215Z,101437.69
2023-01-23T05:09:46.937Z,101440.31
2023-01-23T05:12:33.019Z,101417.69
2023-01-23T05:15:18.406Z,101450.41
2023-01-23T05:18:04.702Z,101453.28
2023-01-23T05:20:51.577Z,101453.09
2023-01-23T05:23:35.483Z,101467.22
2023-01-23T05:26:19.945Z,101471.59
2023-01-23T05:29:04.693Z,101476.34
2023-01-23T05:31:53.623Z,101486.25
2023-01-23T05:35:00.731Z,101486.59
2023-01-23T05:37:51.319Z,101461.34
2023-01-23T05:40:38.656Z,101482.91
2023-01-23T05:43:31.217Z,101477.88
2023-01-23T05:46:17.594Z,101485.59
2023-01-23T05:49:09.269Z,101496.56
2023-01-23T05:51:53.911Z,101469.69
2023-01-23T05:54:37.812Z,101500.88
2023-01-23T05:57:21.841Z,101501.16
2023-01-23T06:00:41.084Z,101504.66
2023-01-23T06:03:43.879Z,101517.47
2023-01-23T06:06:48.124Z,101516.03
2023-01-23T06:09:31.824Z,101512.84
2023-01-23T06:12:15.573Z,101516.63
2023-01-23T06:14:59.567Z,101520.66
2023-01-23T06:17:43.593Z,101521.47
2023-01-23T06:20:27.586Z,101515.84
2023-01-23T06:23:13.627Z,101517.75
2023-01-23T06:26:01.769Z,101514.97
2023-01-23T06:28:46.292Z,101508.81
2023-01-23T06:31:32.813Z,101514.16
2023-01-23T06:34:19.119Z,101519.25
2023-01-23T06:37:12.586Z,101469.94
2023-01-23T06:40:01.451Z,101527.88
2023-01-23T06:42:46.855Z,101518.53
2023-01-23T06:45:30.802Z,101528.34
2023-01-23T06:48:15.549Z,101519.25
2023-01-23T06:51:01.399Z,101526.03
2023-01-23T06:53:46.303Z,101509.03
2023-01-23T06:56:31.833Z,101539.91
2023-01-23T06:59:18.270Z,101481.97
2023-01-23T07:02:02.917Z,101529.50
2023-01-23T07:04:54.855Z,101538.53
2023-01-23T07:07:38.764Z,101545.50
2023-01-23T07:10:23.189Z,101543.78
2023-01-23T07:13:09.740Z,101552.31
2023-01-23T07:15:53.894Z,101556.53
2023-01-23T07:18:39.510Z,101557.88
2023-01-23T07:21:26.737Z,101564.69
2023-01-23T07:24:10.968Z,101565.56
2023-01-23T07:26:54.880Z,101567.94
2023-01-23T07:29:40.066Z,101568.75
2023-01-23T07:32:23.982Z,101535.91
2023-01-23T07:35:09.800Z,101574.84
2023-01-23T07:37:54.057Z,101558.81
2023-01-23T07:40:39.380Z,101568.78
2023-01-23T07:43:23.554Z,101579.28
2023-01-23T07:46:09.705Z,101565.72
2023-01-23T07:48:54.562Z,101569.44
2023-01-23T07:51:38.433Z,101569.72
2023-01-23T07:54:22.599Z,101567.81
2023-01-23T07:57:06.692Z,101579.91
2023-01-23T07:59:50.734Z,101582.44
2023-01-23T08:02:36.142Z,101589.44
2023-01-23T08:05:20.179Z,101584.34
2023-01-23T08:08:13.231Z,101582.72
2023-01-23T08:10:57.713Z,101587.84
2023-01-23T08:13:42.256Z,101589.72
2023-01-23T08:16:26.397Z,101591.59
2023-01-23T08:19:12.067Z,101603.22
2023-01-23T08:21:56.069Z,101594.81
2023-01-23T08:24:40.001Z,101598.41
2023-01-23T08:27:24.021Z,101596.97
2023-01-23T08:30:09.282Z,101591.06
2023-01-23T08:32:53.375Z,101596.53
2023-01-23T08:35:38.989Z,101597.50
2023-01-23T08:38:23.771Z,101589.88
2023-01-23T08:41:10.140Z,101599.34
2023-01-23T08:43:54.275Z,101589.44
2023-01-23T08:46:38.355Z,101588.97
2023-01-23T08:49:22.344Z,101576.22
2023-01-23T08:52:08.142Z,101599.69
2023-01-23T08:54:52.037Z,101584.22
2023-01-23T08:57:36.096Z,101578.50
2023-01-23T09:00:21.585Z,101560.34
2023-01-23T09:03:06.543Z,101572.56
2023-01-23T09:05:50.829Z,101558.28
2023-01-23T09:08:38.426Z,101585.50
2023-01-23T09:11:24.003Z,101579.72
2023-01-23T09:14:08.295Z,101591.88
2023-01-23T09:16:52.680Z,101584.00
2023-01-23T09:19:37.313Z,101553.09
2023-01-23T09:22:21.642Z,101595.56
2023-01-23T09:25:07.942Z,101583.44
2023-01-23T09:27:51.764Z,101592.50
2023-01-23T09:30:35.724Z,101584.38
2023-01-23T09:33:24.747Z,101583.38
2023-01-23T09:36:15.674Z,101579.34
2023-01-23T09:38:59.679Z,101582.94
2023-01-23T09:41:47.547Z,101584.44
2023-01-23T09:44:38.522Z,101586.94
2023-01-23T09:47:27.871Z,101585.34
2023-01-23T09:50:19.776Z,101589.19
2023-01-23T09:53:14.239Z,101596.34
2023-01-23T09:56:03.259Z,101594.44
2023-01-23T09:59:00.588Z,101595.69
2023-01-23T10:01:44.381Z,101587.91
2023-01-23T10:04:28.240Z,101556.47
2023-01-23T10:07:32.464Z,101582.22
2023-01-23T10:10:34.498Z,101590.44
2023-01-23T10:13:20.879Z,101581.72
2023-01-23T10:16:20.140Z,101586.81
2023-01-23T10:19:16.432Z,101567.66
2023-01-23T10:22:05.425Z,101551.50
2023-01-23T10:24:52.330Z,101563.03
2023-01-23T10:27:42.257Z,101564.00
2023-01-23T10:30:29.962Z,101572.13
2023-01-23T10:33:17.386Z,101572.84
2023-01-23T10:36:07.259Z,101523.09
2023-01-23T10:38:58.560Z,101557.38
2023-01-23T10:41:44.436Z,101580.16
2023-01-23T10:44:30.513Z,101567.84
2023-01-23T10:47:21.162Z,101564.31
2023-01-23T10:50:07.461Z,101552.50
2023-01-23T10:52:51.503Z,101564.94
2023-01-23T10:55:35.342Z,101550.06
2023-01-23T10:58:30.887Z,101534.38
2023-01-23T11:01:27.728Z,101556.81
2023-01-23T11:04:18.832Z,101556.94
2023-01-23T11:07:08.571Z,101539.25
2023-01-23T11:09:55.796Z,101564.69
2023-01-23T11:12:49.261Z,101563.31
2023-01-23T11:15:36.699Z,101549.25
2023-01-23T11:18:32.400Z,101566.81
2023-01-23T11:21:22.597Z,101525.66
2023-01-23T11:24:27.830Z,101565.19
2023-01-23T11:27:20.548Z,101560.88
2023-01-23T11:30:32.802Z,101543.69
2023-01-23T11:33:30.567Z,101547.13
2023-01-23T11:36:31.361Z,101549.41
2023-01-23T11:39:37.385Z,101547.13
2023-01-23T11:42:21.470Z,101553.19
2023-01-23T11:45:07.355Z,101550.47
2023-01-23T11:48:12.713Z,101556.47
2023-01-23T11:51:07.788Z,101552.34
2023-01-23T11:54:00.033Z,101543.44
2023-01-23T11:57:11.487Z,101551.78
2023-01-23T12:00:07.970Z,101562.97
2023-01-23T12:03:34.070Z,101571.34
2023-01-23T12:06:37.773Z,101565.41
2023-01-23T12:09:22.764Z,101548.13
2023-01-23T12:12:18.216Z,101576.91
2023-01-23T12:15:07.407Z,101559.25
2023-01-23T12:20:58.439Z,101567.94
2023-01-23T12:24:04.557Z,101561.69
2023-01-23T12:27:02.548Z,101576.47
2023-01-23T12:30:09.795Z,101576.00
2023-01-23T12:33:09.299Z,101572.47
2023-01-23T12:36:02.657Z,101573.47
2023-01-23T12:39:00.566Z,101577.75
2023-01-23T12:41:50.513Z,101591.03
2023-01-23T12:44:39.634Z,101592.75
2023-01-23T12:47:28.372Z,101588.41
2023-01-23T12:50:20.900Z,101593.06
2023-01-23T12:53:10.216Z,101594.00
2023-01-23T12:56:03.599Z,101543.13
2023-01-23T12:58:54.768Z,101576.28
2023-01-23T13:01:54.003Z,101593.81
2023-01-23T13:04:54.968Z,101567.78
2023-01-23T13:07:50.048Z,101589.53
2023-01-23T13:11:08.701Z,101589.53
2023-01-23T13:13:52.802Z,101603.44
2023-01-23T13:16:47.552Z,101609.59
2023-01-23T13:19:50.593Z,101606.78
2023-01-23T13:22:38.633Z,101586.09
2023-01-23T13:25:22.589Z,101587.81
2023-01-23T13:28:46.495Z,101609.22
2023-01-23T13:31:50.697Z,101603.38
2023-01-23T13:34:41.779Z,101610.25
2023-01-23T13:37:52.488Z,101613.38
2023-01-23T13:40:36.553Z,101610.16
2023-01-23T13:43:44.306Z,101613.00
2023-01-23T14:22:22.759Z,101651.59
2023-01-23T14:25:17.832Z,101647.34
2023-01-23T14:28:06.416Z,101665.63
2023-01-23T14:30:58.054Z,101665.63
2023-01-23T14:33:45.866Z,101664.59
2023-01-23T14:36:30.346Z,101666.53
2023-01-23T14:39:19.400Z,101628.19
2023-01-23T14:42:06.528Z,101657.88
2023-01-23T14:44:52.596Z,101666.50
2023-01-23T14:47:42.497Z,101678.75
2023-01-23T14:50:31.075Z,101676.16
2023-01-23T14:53:17.820Z,101676.13
2023-01-23T14:56:02.659Z,101670.00
2023-01-23T14:58:48.232Z,101680.50
2023-01-23T15:01:34.079Z,101684.00
2023-01-23T15:04:23.509Z,101683.09
2023-01-23T15:07:18.481Z,101672.66
2023-01-23T15:10:02.737Z,101681.38
2023-01-23T15:12:53.089Z,101677.91
2023-01-23T15:15:37.512Z,101666.56
2023-01-23T15:18:24.486Z,101679.63
2023-01-23T15:21:09.543Z,101683.97
2023-01-23T15:24:08.691Z,101679.63
2023-01-23T15:27:01.226Z,101689.16
2023-01-23T15:29:45.130Z,101687.47
2023-01-23T15:32:29.156Z,101680.50
2023-01-23T15:35:18.446Z,101665.69
2023-01-23T15:38:05.570Z,101703.13
2023-01-23T15:40:51.433Z,101686.59
2023-01-23T15:43:35.133Z,101681.34
2023-01-23T15:46:18.935Z,101705.78
2023-01-23T15:49:03.411Z,101709.22
2023-01-23T15:51:48.231Z,101711.00
2023-01-23T15:54:35.993Z,101704.91
2023-01-23T15:57:21.865Z,101690.94
2023-01-23T16:00:15.734Z,101711.88
2023-01-23T16:03:00.845Z,101713.59
2023-01-23T16:05:44.787Z,101714.38
2023-01-23T16:08:28.863Z,101695.94
2023-01-23T16:11:12.699Z,101724.78
2023-01-23T16:13:57.929Z,101725.59
2023-01-23T16:16:41.928Z,101701.25
2023-01-23T16:19:25.922Z,101682.81
2023-01-23T16:22:15.243Z,101686.31
2023-01-23T16:24:59.546Z,101736.84
2023-01-23T16:27:43.237Z,101716.94
2023-01-23T16:30:28.991Z,101727.34
2023-01-23T16:33:13.169Z,101744.03
2023-01-23T16:35:57.402Z,101732.66
2023-01-23T16:38:41.383Z,101741.38
2023-01-23T16:41:25.245Z,101741.22
2023-01-23T16:44:11.623Z,101743.81
2023-01-23T16:46:56.831Z,101746.47
2023-01-23T16:49:51.450Z,101747.16
2023-01-23T16:52:36.378Z,101737.78
2023-01-23T16:55:23.913Z,101749.00
2023-01-23T16:58:11.994Z,101732.56
2023-01-23T17:01:01.121Z,101742.72
2023-01-23T17:03:46.741Z,101743.59
2023-01-23T17:06:31.428Z,101735.69
2023-01-23T17:09:15.999Z,101741.81
2023-01-23T17:11:59.943Z,101747.28
2023-01-23T17:14:44.973Z,101733.84
2023-01-23T17:17:39.075Z,101735.63
2023-01-23T17:20:24.571Z,101746.13
2023-01-23T17:23:08.431Z,101741.16
2023-01-23T17:26:00.742Z,101740.81
2023-01-23T17:28:45.799Z,101741.69
2023-01-23T17:31:32.643Z,101739.94
2023-01-23T17:34:22.436Z,101727.72
2023-01-23T17:37:18.872Z,101726.88
2023-01-23T17:40:03.381Z,101720.06
2023-01-23T17:42:47.915Z,101730.47
2023-01-23T17:45:31.958Z,101739.94
2023-01-23T17:48:18.044Z,101751.28
2023-01-23T17:51:02.358Z,101745.13
2023-01-23T17:53:48.364Z,101733.59
2023-01-23T17:56:32.402Z,101745.97
2023-01-23T17:59:16.351Z,101737.22
2023-01-23T18:02:00.500Z,101752.81
2023-01-23T18:04:44.618Z,101742.66
2023-01-23T18:07:28.836Z,101737.63
2023-01-23T18:10:14.665Z,101701.06
2023-01-23T18:13:10.389Z,101745.34
2023-01-23T18:16:05.081Z,101738.28
2023-01-23T18:18:54.644Z,101723.16
2023-01-23T18:21:40.337Z,101730.16
2023-01-23T18:24:27.912Z,101728.59
2023-01-23T18:27:22.534Z,101737.47
2023-01-23T18:30:35.737Z,101735.69
2023-01-23T18:33:51.383Z,101718.41
2023-01-23T18:36:49.816Z,101735.19
2023-01-23T18:39:45.436Z,101737.91
2023-01-23T18:42:38.779Z,101737.13
2023-01-23T18:45:27.654Z,101733.56
2023-01-23T18:48:24.505Z,101741.31
2023-01-23T18:51:22.874Z,101745.53
2023-01-23T18:54:20.788Z,101736.94
2023-01-23T18:57:20.997Z,101741.25
2023-01-23T19:00:18.190Z,101736.72
2023-01-23T19:03:11.396Z,101751.69
2023-01-23T19:05:57.471Z,101750.56
2023-01-23T19:08:43.599Z,101751.50
2023-01-23T19:11:38.950Z,101757.75
2023-01-23T19:14:38.387Z,101758.47
2023-01-23T19:17:37.422Z,101740.91
2023-01-23T19:20:31.304Z,101761.03
2023-01-23T19:23:27.846Z,101768.94
2023-01-23T19:26:15.908Z,101765.31
2023-01-23T19:29:19.124Z,101769.66
2023-01-23T19:32:06.534Z,101767.03
2023-01-23T19:34:56.385Z,101774.75
2023-01-23T19:37:43.202Z,101764.63
2023-01-23T19:40:29.081Z,101758.47
2023-01-23T19:43:17.999Z,101766.16
2023-01-23T19:46:04.908Z,101777.47
2023-01-23T19:48:50.964Z,101712.78
2023-01-23T19:51:38.095Z,101744.97
2023-01-23T19:54:24.297Z,101768.34
2023-01-23T19:57:09.849Z,101746.19
2023-01-23T19:59:55.410Z,101766.81
2023-01-23T20:02:40.533Z,101763.34
2023-01-23T20:05:26.377Z,101760.69
2023-01-23T20:08:12.831Z,101765.72
2023-01-23T20:10:57.612Z,101753.97
2023-01-23T20:13:42.863Z,101767.06
2023-01-23T20:16:27.106Z,101765.31
2023-01-23T20:19:14.603Z,101769.38
2023-01-23T20:21:58.759Z,101766.81
2023-01-23T20:24:44.660Z,101761.75
2023-01-23T20:27:29.937Z,101771.19
2023-01-23T20:30:21.306Z,101720.72
2023-01-23T20:33:08.452Z,101680.50
2023-01-23T20:35:53.806Z,101728.56
2023-01-23T20:38:38.255Z,101726.97
2023-01-23T20:41:24.448Z,101727.75
2023-01-23T20:44:08.974Z,101727.72
2023-01-23T20:46:53.155Z,101781.91
2023-01-23T20:49:37.349Z,101712.28
2023-01-23T20:52:44.509Z,101716.50
2023-01-23T20:55:28.611Z,101732.84
2023-01-23T20:58:31.304Z,101723.19
2023-01-23T21:01:16.239Z,101778.25
2023-01-23T21:04:00.216Z,101776.34
2023-01-23T21:06:44.551Z,101773.81
2023-01-23T21:09:29.043Z,101770.44
2023-01-23T21:12:13.393Z,101782.53
2023-01-23T21:14:58.737Z,101771.00
2023-01-23T21:17:42.695Z,101770.41
2023-01-23T21:20:26.634Z,101774.13
2023-01-23T21:23:10.491Z,101774.81
2023-01-23T21:26:01.773Z,101779.00
2023-01-23T21:28:49.877Z,101770.34
2023-01-23T21:31:37.239Z,101768.66
2023-01-23T21:34:21.186Z,101770.13
2023-01-23T21:37:07.313Z,101783.75
2023-01-23T21:39:51.414Z,101767.50
2023-01-23T21:42:35.265Z,101779.94
2023-01-23T21:45:19.257Z,101780.81
2023-01-23T21:48:05.422Z,101769.66
2023-01-23T21:50:49.324Z,101786.91
2023-01-23T21:53:33.255Z,101785.00
2023-01-23T21:56:19.114Z,101782.41
2023-01-23T21:59:03.052Z,101774.63
2023-01-23T22:01:46.908Z,101784.91
2023-01-23T22:04:32.283Z,101768.50
2023-01-23T22:07:16.172Z,101784.81
2023-01-23T22:09:59.929Z,101770.03
2023-01-23T22:12:43.633Z,101780.50
2023-01-23T22:15:27.581Z,101780.31
2023-01-23T22:18:11.619Z,101770.09
2023-01-23T22:20:57.708Z,101742.94
2023-01-23T22:23:41.595Z,101792.75
2023-01-23T22:26:25.482Z,101789.88
2023-01-23T22:29:09.672Z,101786.56
2023-01-23T22:31:53.809Z,101737.78
2023-01-23T22:34:38.047Z,101797.09
2023-01-23T22:37:23.400Z,101790.97
2023-01-23T22:40:09.232Z,101785.06
2023-01-23T22:42:53.097Z,101794.28
2023-01-23T22:45:37.270Z,101776.88
2023-01-23T22:48:21.131Z,101786.59
2023-01-23T22:51:06.499Z,101774.50
2023-01-23T22:53:51.976Z,101780.28
2023-01-23T22:56:35.776Z,101763.78
2023-01-23T22:59:19.636Z,101767.94
2023-01-23T23:02:03.406Z,101764.50
2023-01-23T23:04:49.939Z,101776.47
2023-01-23T23:07:33.785Z,101773.22
2023-01-23T23:10:19.317Z,101771.03
2023-01-23T23:13:03.192Z,101772.88
2023-01-23T23:15:47.058Z,101772.06
2023-01-23T23:18:31.051Z,101772.09
2023-01-23T23:21:17.201Z,101770.91
2023-01-23T23:24:02.116Z,101776.56
2023-01-23T23:26:48.145Z,101763.34
2023-01-23T23:29:32.032Z,101781.56
2023-01-23T23:32:16.133Z,101780.44
2023-01-23T23:35:00.060Z,101742.81
2023-01-23T23:37:44.009Z,101734.09
2023-01-23T23:40:27.937Z,101781.44
2023-01-23T23:43:13.189Z,101778.91
2023-01-23T23:45:59.119Z,101782.28
2023-01-23T23:48:43.769Z,101775.16
2023-01-23T23:51:27.634Z,101784.94
2023-01-23T23:54:11.633Z,101784.72
2023-01-23T23:56:55.523Z,101781.31
2023-01-23T23:59:40.740Z,101782.66
